sensor_id;sensor_type;location;lat;lon;timestamp;pressure;altitude;pressure_sealevel;temperature;humidity
64551;BME280;50945;44.472;-123.352;2023-05-03T00:01:13;99718.09;;;19.89;61.58
64551;BME280;50945;44.472;-123.352;2023-05-03T00:03:39;99719.03;;;20.00;61.22
64551;BME280;50945;44.472;-123.352;2023-05-03T00:06:13;99718.78;;;20.02;57.40
64551;BME280;50945;44.472;-123.352;2023-05-03T00:08:39;99720.81;;;19.84;60.50
64551;BME280;50945;44.472;-123.352;2023-05-03T00:11:06;99726.19;;;19.69;60.85
64551;BME280;50945;44.472;-123.352;2023-05-03T00:13:33;99722.31;;;19.70;60.92
64551;BME280;50945;44.472;-123.352;2023-05-03T00:16:01;99725.22;;;19.80;60.46
64551;BME280;50945;44.472;-123.352;2023-05-03T00:18:27;99734.59;;;19.74;60.29
64551;BME280;50945;44.472;-123.352;2023-05-03T00:20:55;99738.44;;;19.73;60.67
64551;BME280;50945;44.472;-123.352;2023-05-03T00:23:22;99734.34;;;19.75;60.48
64551;BME280;50945;44.472;-123.352;2023-05-03T00:25:55;99732.41;;;19.76;60.47
64551;BME280;50945;44.472;-123.352;2023-05-03T00:28:22;99735.75;;;19.78;60.59
64551;BME280;50945;44.472;-123.352;2023-05-03T00:30:48;99742.38;;;19.77;59.72
64551;BME280;50945;44.472;-123.352;2023-05-03T00:33:15;99736.16;;;19.70;60.14
64551;BME280;50945;44.472;-123.352;2023-05-03T00:35:42;99733.06;;;19.66;60.13
64551;BME280;50945;44.472;-123.352;2023-05-03T00:38:08;99737.03;;;19.48;59.95
64551;BME280;50945;44.472;-123.352;2023-05-03T00:40:34;99740.91;;;19.25;59.62
64551;BME280;50945;44.472;-123.352;2023-05-03T00:43:00;99736.94;;;18.99;59.64
64551;BME280;50945;44.472;-123.352;2023-05-03T00:45:29;99734.94;;;18.77;59.92
64551;BME280;50945;44.472;-123.352;2023-05-03T00:47:59;99739.72;;;18.65;60.25
64551;BME280;50945;44.472;-123.352;2023-05-03T00:50:26;99750.25;;;18.46;60.79
64551;BME280;50945;44.472;-123.352;2023-05-03T00:52:52;99748.13;;;18.19;59.44
64551;BME280;50945;44.472;-123.352;2023-05-03T00:55:18;99746.50;;;18.07;61.26
64551;BME280;50945;44.472;-123.352;2023-05-03T00:57:45;99751.09;;;18.01;61.62
64551;BME280;50945;44.472;-123.352;2023-05-03T01:00:11;99741.72;;;18.02;61.80
64551;BME280;50945;44.472;-123.352;2023-05-03T01:02:38;99742.06;;;18.05;61.35
64551;BME280;50945;44.472;-123.352;2023-05-03T01:05:04;99742.06;;;18.05;61.10
64551;BME280;50945;44.472;-123.352;2023-05-03T01:07:46;99739.06;;;18.07;60.39
64551;BME280;50945;44.472;-123.352;2023-05-03T01:10:44;99745.41;;;18.08;59.87
64551;BME280;50945;44.472;-123.352;2023-05-03T01:20:00;99758.63;;;17.89;60.00
64551;BME280;50945;44.472;-123.352;2023-05-03T01:22:42;99768.72;;;17.83;59.78
64551;BME280;50945;44.472;-123.352;2023-05-03T01:25:13;99765.59;;;17.79;61.48
64551;BME280;50945;44.472;-123.352;2023-05-03T01:27:40;99763.06;;;17.78;61.22
64551;BME280;50945;44.472;-123.352;2023-05-03T01:30:12;99768.03;;;17.76;61.44
64551;BME280;50945;44.472;-123.352;2023-05-03T01:33:04;99766.59;;;17.73;61.11
64551;BME280;50945;44.472;-123.352;2023-05-03T01:35:56;99765.97;;;17.71;60.58
64551;BME280;50945;44.472;-123.352;2023-05-03T01:38:27;99773.69;;;17.69;61.61
64551;BME280;50945;44.472;-123.352;2023-05-03T01:40:59;99772.84;;;17.68;61.60
64551;BME280;50945;44.472;-123.352;2023-05-03T01:43:28;99771.16;;;17.67;61.95
64551;BME280;50945;44.472;-123.352;2023-05-03T01:45:58;99774.09;;;17.61;61.95
64551;BME280;50945;44.472;-123.352;2023-05-03T01:48:24;99778.69;;;17.55;62.08
64551;BME280;50945;44.472;-123.352;2023-05-03T01:50:51;99783.81;;;17.52;62.47
64551;BME280;50945;44.472;-123.352;2023-05-03T01:53:17;99783.47;;;17.48;62.18
64551;BME280;50945;44.472;-123.352;2023-05-03T01:55:43;99789.50;;;17.45;62.28
64551;BME280;50945;44.472;-123.352;2023-05-03T01:58:10;99799.09;;;17.42;62.11
64551;BME280;50945;44.472;-123.352;2023-05-03T02:00:37;99788.81;;;17.38;62.18
64551;BME280;50945;44.472;-123.352;2023-05-03T02:03:04;99788.69;;;17.33;62.47
64551;BME280;50945;44.472;-123.352;2023-05-03T02:05:30;99783.41;;;17.31;62.29
64551;BME280;50945;44.472;-123.352;2023-05-03T02:07:56;99786.28;;;17.24;62.42
64551;BME280;50945;44.472;-123.352;2023-05-03T02:10:25;99796.41;;;17.19;62.14
64551;BME280;50945;44.472;-123.352;2023-05-03T02:12:51;99799.16;;;17.07;61.82
64551;BME280;50945;44.472;-123.352;2023-05-03T02:15:19;99800.38;;;16.99;61.96
64551;BME280;50945;44.472;-123.352;2023-05-03T02:17:45;99799.41;;;16.94;62.20
64551;BME280;50945;44.472;-123.352;2023-05-03T02:20:12;99791.47;;;16.85;61.76
64551;BME280;50945;44.472;-123.352;2023-05-03T02:22:39;99806.59;;;16.83;62.15
64551;BME280;50945;44.472;-123.352;2023-05-03T02:25:05;99802.88;;;16.77;61.75
64551;BME280;50945;44.472;-123.352;2023-05-03T02:27:35;99797.81;;;16.74;61.49
64551;BME280;50945;44.472;-123.352;2023-05-03T02:30:02;99804.63;;;16.71;61.71
64551;BME280;50945;44.472;-123.352;2023-05-03T02:32:28;99803.81;;;16.71;61.71
64551;BME280;50945;44.472;-123.352;2023-05-03T02:34:55;99814.84;;;16.71;61.79
64551;BME280;50945;44.472;-123.352;2023-05-03T02:37:24;99824.31;;;16.75;62.09
64551;BME280;50945;44.472;-123.352;2023-05-03T02:39:51;99825.78;;;16.78;61.82
64551;BME280;50945;44.472;-123.352;2023-05-03T02:42:18;99813.53;;;16.73;61.86
64551;BME280;50945;44.472;-123.352;2023-05-03T02:44:45;99810.06;;;16.66;61.80
64551;BME280;50945;44.472;-123.352;2023-05-03T02:47:12;99818.06;;;16.56;62.19
64551;BME280;50945;44.472;-123.352;2023-05-03T02:49:38;99831.84;;;16.44;62.52
64551;BME280;50945;44.472;-123.352;2023-05-03T02:52:04;99850.88;;;16.34;62.76
64551;BME280;50945;44.472;-123.352;2023-05-03T02:54:31;99853.59;;;16.22;63.13
64551;BME280;50945;44.472;-123.352;2023-05-03T02:56:57;99857.63;;;16.08;63.48
64551;BME280;50945;44.472;-123.352;2023-05-03T02:59:23;99864.94;;;15.84;63.96
64551;BME280;50945;44.472;-123.352;2023-05-03T03:01:50;99859.25;;;15.60;64.16
64551;BME280;50945;44.472;-123.352;2023-05-03T03:04:16;99873.22;;;15.40;65.08
64551;BME280;50945;44.472;-123.352;2023-05-03T03:06:42;99884.63;;;15.25;65.22
64551;BME280;50945;44.472;-123.352;2023-05-03T03:09:08;99892.16;;;15.11;65.59
64551;BME280;50945;44.472;-123.352;2023-05-03T03:11:35;99896.78;;;14.92;65.92
64551;BME280;50945;44.472;-123.352;2023-05-03T03:14:01;99905.78;;;14.74;66.67
64551;BME280;50945;44.472;-123.352;2023-05-03T03:16:27;99910.78;;;14.59;67.32
64551;BME280;50945;44.472;-123.352;2023-05-03T03:18:53;99911.25;;;14.42;67.47
64551;BME280;50945;44.472;-123.352;2023-05-03T03:21:21;99901.88;;;14.25;67.96
64551;BME280;50945;44.472;-123.352;2023-05-03T03:23:48;99900.91;;;14.06;68.68
64551;BME280;50945;44.472;-123.352;2023-05-03T03:26:14;99897.38;;;13.92;68.89
64551;BME280;50945;44.472;-123.352;2023-05-03T03:28:40;99908.00;;;13.75;69.57
64551;BME280;50945;44.472;-123.352;2023-05-03T03:31:07;99926.44;;;13.61;69.28
64551;BME280;50945;44.472;-123.352;2023-05-03T03:33:33;99929.19;;;13.48;70.22
64551;BME280;50945;44.472;-123.352;2023-05-03T03:36:01;99939.78;;;13.38;70.19
64551;BME280;50945;44.472;-123.352;2023-05-03T03:38:27;99937.44;;;13.21;70.97
64551;BME280;50945;44.472;-123.352;2023-05-03T03:40:53;99929.63;;;13.11;70.70
64551;BME280;50945;44.472;-123.352;2023-05-03T03:43:21;99922.03;;;13.00;71.23
64551;BME280;50945;44.472;-123.352;2023-05-03T03:45:47;99927.94;;;12.90;71.53
64551;BME280;50945;44.472;-123.352;2023-05-03T03:48:14;99923.50;;;12.76;72.15
64551;BME280;50945;44.472;-123.352;2023-05-03T03:50:41;99931.28;;;12.66;72.90
64551;BME280;50945;44.472;-123.352;2023-05-03T03:53:08;99928.34;;;12.61;72.41
64551;BME280;50945;44.472;-123.352;2023-05-03T03:55:35;99934.66;;;12.54;72.77
64551;BME280;50945;44.472;-123.352;2023-05-03T03:58:02;99939.28;;;12.47;72.94
64551;BME280;50945;44.472;-123.352;2023-05-03T04:00:28;99946.22;;;12.36;73.74
64551;BME280;50945;44.472;-123.352;2023-05-03T04:02:56;99941.34;;;12.32;73.55
64551;BME280;50945;44.472;-123.352;2023-05-03T04:05:22;99943.22;;;12.25;73.96
64551;BME280;50945;44.472;-123.352;2023-05-03T04:07:48;99949.50;;;12.18;74.22
64551;BME280;50945;44.472;-123.352;2023-05-03T04:10:16;99953.09;;;12.12;76.00
64551;BME280;50945;44.472;-123.352;2023-05-03T04:12:42;99964.66;;;12.08;75.59
64551;BME280;50945;44.472;-123.352;2023-05-03T04:15:11;99968.00;;;12.03;81.43
64551;BME280;50945;44.472;-123.352;2023-05-03T04:17:37;99968.81;;;11.97;75.36
64551;BME280;50945;44.472;-123.352;2023-05-03T04:20:04;99963.97;;;11.92;76.13
64551;BME280;50945;44.472;-123.352;2023-05-03T04:22:36;99974.44;;;11.89;76.08
64551;BME280;50945;44.472;-123.352;2023-05-03T04:25:09;99971.88;;;11.80;76.46
64551;BME280;50945;44.472;-123.352;2023-05-03T04:27:39;99961.50;;;11.76;77.19
64551;BME280;50945;44.472;-123.352;2023-05-03T04:30:07;99954.56;;;11.73;76.67
64551;BME280;50945;44.472;-123.352;2023-05-03T04:32:37;99942.31;;;11.69;76.54
64551;BME280;50945;44.472;-123.352;2023-05-03T04:35:09;99923.13;;;11.63;77.91
64551;BME280;50945;44.472;-123.352;2023-05-03T04:37:37;99917.41;;;11.57;77.84
64551;BME280;50945;44.472;-123.352;2023-05-03T04:40:07;99910.84;;;11.52;77.84
64551;BME280;50945;44.472;-123.352;2023-05-03T04:42:37;99883.63;;;11.44;82.18
64551;BME280;50945;44.472;-123.352;2023-05-03T04:45:04;99864.41;;;11.37;82.13
64551;BME280;50945;44.472;-123.352;2023-05-03T04:47:34;99872.19;;;11.33;79.70
64551;BME280;50945;44.472;-123.352;2023-05-03T04:50:01;99889.88;;;11.31;78.69
64551;BME280;50945;44.472;-123.352;2023-05-03T04:52:28;99901.84;;;11.30;81.36
64551;BME280;50945;44.472;-123.352;2023-05-03T04:54:54;99904.81;;;11.28;78.67
64551;BME280;50945;44.472;-123.352;2023-05-03T04:57:21;99893.88;;;11.28;78.87
64551;BME280;50945;44.472;-123.352;2023-05-03T04:59:50;99888.78;;;11.25;81.74
64551;BME280;50945;44.472;-123.352;2023-05-03T05:02:18;99907.94;;;11.25;78.85
64551;BME280;50945;44.472;-123.352;2023-05-03T05:04:45;99918.25;;;11.23;81.00
64551;BME280;50945;44.472;-123.352;2023-05-03T05:07:12;99935.88;;;11.20;78.07
64551;BME280;50945;44.472;-123.352;2023-05-03T05:09:39;99930.84;;;11.17;78.21
64551;BME280;50945;44.472;-123.352;2023-05-03T05:12:05;99936.50;;;11.16;78.05
64551;BME280;50945;44.472;-123.352;2023-05-03T05:14:32;99951.00;;;11.16;77.74
64551;BME280;50945;44.472;-123.352;2023-05-03T05:16:58;99952.03;;;11.15;77.20
64551;BME280;50945;44.472;-123.352;2023-05-03T05:19:24;99964.06;;;11.14;77.66
64551;BME280;50945;44.472;-123.352;2023-05-03T05:21:51;99956.63;;;11.08;78.36
64551;BME280;50945;44.472;-123.352;2023-05-03T05:24:17;99936.38;;;11.02;79.03
64551;BME280;50945;44.472;-123.352;2023-05-03T05:26:43;99940.94;;;10.95;79.50
64551;BME280;50945;44.472;-123.352;2023-05-03T05:29:10;99941.97;;;10.94;78.56
64551;BME280;50945;44.472;-123.352;2023-05-03T05:31:36;99953.97;;;10.93;78.09
64551;BME280;50945;44.472;-123.352;2023-05-03T05:34:02;99957.28;;;10.89;79.20
64551;BME280;50945;44.472;-123.352;2023-05-03T05:36:29;99969.69;;;10.84;79.12
64551;BME280;50945;44.472;-123.352;2023-05-03T05:38:56;99971.75;;;10.82;79.62
64551;BME280;50945;44.472;-123.352;2023-05-03T05:41:22;99976.31;;;10.75;80.15
64551;BME280;50945;44.472;-123.352;2023-05-03T05:43:48;99975.69;;;10.73;78.90
64551;BME280;50945;44.472;-123.352;2023-05-03T05:46:15;99967.22;;;10.68;79.25
64551;BME280;50945;44.472;-123.352;2023-05-03T05:48:41;99968.44;;;10.65;79.25
64551;BME280;50945;44.472;-123.352;2023-05-03T05:51:08;99978.53;;;10.65;78.90
64551;BME280;50945;44.472;-123.352;2023-05-03T05:53:34;100004.16;;;10.64;78.78
64551;BME280;50945;44.472;-123.352;2023-05-03T05:56:00;100043.09;;;10.66;79.27
64551;BME280;50945;44.472;-123.352;2023-05-03T05:58:26;100054.03;;;10.66;79.51
64551;BME280;50945;44.472;-123.352;2023-05-03T06:00:59;100047.50;;;10.67;78.97
64551;BME280;50945;44.472;-123.352;2023-05-03T06:03:29;100049.22;;;10.68;78.84
64551;BME280;50945;44.472;-123.352;2023-05-03T06:05:56;100057.81;;;10.65;81.87
64551;BME280;50945;44.472;-123.352;2023-05-03T06:08:22;100070.63;;;10.64;78.61
64551;BME280;50945;44.472;-123.352;2023-05-03T06:10:48;100079.19;;;10.61;79.10
64551;BME280;50945;44.472;-123.352;2023-05-03T06:13:17;100068.84;;;10.57;79.04
64551;BME280;50945;44.472;-123.352;2023-05-03T06:15:43;100062.91;;;10.53;78.63
64551;BME280;50945;44.472;-123.352;2023-05-03T06:18:10;100072.06;;;10.45;78.94
64551;BME280;50945;44.472;-123.352;2023-05-03T06:20:36;100073.03;;;10.38;79.46
64551;BME280;50945;44.472;-123.352;2023-05-03T06:23:04;100073.59;;;10.33;79.48
64551;BME280;50945;44.472;-123.352;2023-05-03T06:25:30;100069.25;;;10.24;79.81
64551;BME280;50945;44.472;-123.352;2023-05-03T06:27:56;100076.97;;;10.20;79.16
64551;BME280;50945;44.472;-123.352;2023-05-03T06:30:22;100082.97;;;10.16;78.89
64551;BME280;50945;44.472;-123.352;2023-05-03T06:32:50;100086.13;;;10.13;79.79
64551;BME280;50945;44.472;-123.352;2023-05-03T06:35:16;100088.16;;;10.11;79.37
64551;BME280;50945;44.472;-123.352;2023-05-03T06:37:44;100088.56;;;10.07;79.79
64551;BME280;50945;44.472;-123.352;2023-05-03T06:40:10;100104.47;;;10.04;79.59
64551;BME280;50945;44.472;-123.352;2023-05-03T06:42:36;100112.66;;;10.04;78.97
64551;BME280;50945;44.472;-123.352;2023-05-03T06:45:03;100108.59;;;10.00;79.58
64551;BME280;50945;44.472;-123.352;2023-05-03T06:47:29;100123.31;;;9.99;80.36
64551;BME280;50945;44.472;-123.352;2023-05-03T06:49:55;100120.56;;;9.99;80.59
64551;BME280;50945;44.472;-123.352;2023-05-03T06:52:21;100120.56;;;9.99;80.81
64551;BME280;50945;44.472;-123.352;2023-05-03T06:54:47;100124.16;;;9.99;81.23
64551;BME280;50945;44.472;-123.352;2023-05-03T06:57:13;100114.94;;;10.00;81.14
64551;BME280;50945;44.472;-123.352;2023-05-03T06:59:40;100106.72;;;10.00;81.11
64551;BME280;50945;44.472;-123.352;2023-05-03T07:02:06;100114.94;;;10.00;80.64
64551;BME280;50945;44.472;-123.352;2023-05-03T07:04:32;100115.94;;;9.99;80.81
64551;BME280;50945;44.472;-123.352;2023-05-03T07:06:58;100107.94;;;9.98;80.40
64551;BME280;50945;44.472;-123.352;2023-05-03T07:09:25;100103.91;;;9.94;80.43
64551;BME280;50945;44.472;-123.352;2023-05-03T07:11:51;100101.34;;;9.92;80.74
64551;BME280;50945;44.472;-123.352;2023-05-03T07:14:17;100105.09;;;9.91;80.12
64551;BME280;50945;44.472;-123.352;2023-05-03T07:16:44;100111.63;;;9.90;80.23
64551;BME280;50945;44.472;-123.352;2023-05-03T07:19:10;100114.72;;;9.87;80.75
64551;BME280;50945;44.472;-123.352;2023-05-03T07:21:36;100108.94;;;9.82;80.80
64551;BME280;50945;44.472;-123.352;2023-05-03T07:24:03;100104.91;;;9.78;81.05
64551;BME280;50945;44.472;-123.352;2023-05-03T07:26:29;100108.66;;;9.77;81.03
64551;BME280;50945;44.472;-123.352;2023-05-03T07:28:55;100109.72;;;9.76;81.15
64551;BME280;50945;44.472;-123.352;2023-05-03T07:31:22;100109.78;;;9.67;80.99
64551;BME280;50945;44.472;-123.352;2023-05-03T07:33:52;100103.19;;;9.62;81.64
64551;BME280;50945;44.472;-123.352;2023-05-03T07:36:18;100104.78;;;9.56;81.56
64551;BME280;50945;44.472;-123.352;2023-05-03T07:38:44;100102.41;;;9.53;82.22
64551;BME280;50945;44.472;-123.352;2023-05-03T07:41:11;100107.03;;;9.52;82.14
64551;BME280;50945;44.472;-123.352;2023-05-03T07:43:37;100102.59;;;9.51;81.80
64551;BME280;50945;44.472;-123.352;2023-05-03T07:46:03;100091.38;;;9.46;82.36
64551;BME280;50945;44.472;-123.352;2023-05-03T07:48:29;100099.56;;;9.46;82.58
64551;BME280;50945;44.472;-123.352;2023-05-03T07:50:55;100101.09;;;9.49;82.25
64551;BME280;50945;44.472;-123.352;2023-05-03T07:53:21;100099.03;;;9.51;82.44
64551;BME280;50945;44.472;-123.352;2023-05-03T07:55:48;100094.41;;;9.51;82.10
64551;BME280;50945;44.472;-123.352;2023-05-03T07:58:14;100083.84;;;9.48;81.25
64551;BME280;50945;44.472;-123.352;2023-05-03T08:00:40;100077.25;;;9.43;81.67
64551;BME280;50945;44.472;-123.352;2023-05-03T08:03:06;100070.34;;;9.32;83.54
64551;BME280;50945;44.472;-123.352;2023-05-03T08:05:33;100061.22;;;9.25;81.64
64551;BME280;50945;44.472;-123.352;2023-05-03T08:08:01;100059.06;;;9.20;81.70
64551;BME280;50945;44.472;-123.352;2023-05-03T08:10:28;100069.44;;;9.17;81.55
64551;BME280;50945;44.472;-123.352;2023-05-03T08:12:55;100067.94;;;9.14;81.73
64551;BME280;50945;44.472;-123.352;2023-05-03T08:15:21;100061.66;;;9.13;81.39
64551;BME280;50945;44.472;-123.352;2023-05-03T08:17:47;100061.84;;;9.12;82.09
64551;BME280;50945;44.472;-123.352;2023-05-03T08:20:13;100049.59;;;9.08;81.73
64551;BME280;50945;44.472;-123.352;2023-05-03T08:22:41;100044.19;;;9.00;82.54
64551;BME280;50945;44.472;-123.352;2023-05-03T08:25:09;100030.81;;;8.90;82.88
64551;BME280;50945;44.472;-123.352;2023-05-03T08:27:35;100028.16;;;8.82;82.60
64551;BME280;50945;44.472;-123.352;2023-05-03T08:30:02;100041.47;;;8.77;83.69
64551;BME280;50945;44.472;-123.352;2023-05-03T08:32:29;100030.75;;;8.75;83.81
64551;BME280;50945;44.472;-123.352;2023-05-03T08:34:55;100033.28;;;8.77;83.20
64551;BME280;50945;44.472;-123.352;2023-05-03T08:37:22;100018.66;;;8.78;83.06
64551;BME280;50945;44.472;-123.352;2023-05-03T08:39:48;100023.53;;;8.82;82.94
64551;BME280;50945;44.472;-123.352;2023-05-03T08:42:14;100026.75;;;8.86;82.47
64551;BME280;50945;44.472;-123.352;2023-05-03T08:44:46;100043.41;;;8.91;83.17
64551;BME280;50945;44.472;-123.352;2023-05-03T08:47:16;100054.81;;;8.94;83.28
64551;BME280;50945;44.472;-123.352;2023-05-03T08:49:43;100053.22;;;9.00;83.18
64551;BME280;50945;44.472;-123.352;2023-05-03T08:52:13;100037.91;;;8.99;82.98
64551;BME280;50945;44.472;-123.352;2023-05-03T08:54:42;100029.03;;;8.97;82.27
64551;BME280;50945;44.472;-123.352;2023-05-03T08:57:13;100035.91;;;8.93;82.96
64551;BME280;50945;44.472;-123.352;2023-05-03T08:59:50;100040.69;;;8.91;83.63
64551;BME280;50945;44.472;-123.352;2023-05-03T09:02:18;100037.97;;;8.91;83.10
64551;BME280;50945;44.472;-123.352;2023-05-03T09:04:44;100039.66;;;8.92;82.47
64551;BME280;50945;44.472;-123.352;2023-05-03T09:07:12;100043.91;;;8.94;82.64
64551;BME280;50945;44.472;-123.352;2023-05-03T09:09:40;100051.91;;;8.96;83.30
64551;BME280;50945;44.472;-123.352;2023-05-03T09:12:08;100047.28;;;8.97;83.18
64551;BME280;50945;44.472;-123.352;2023-05-03T09:14:44;100041.34;;;8.93;83.27
64551;BME280;50945;44.472;-123.352;2023-05-03T09:17:15;100043.59;;;8.89;83.35
64551;BME280;50945;44.472;-123.352;2023-05-03T09:19:55;100034.94;;;8.86;84.37
64551;BME280;50945;44.472;-123.352;2023-05-03T09:22:25;100029.16;;;8.81;83.98
64551;BME280;50945;44.472;-123.352;2023-05-03T09:24:55;100029.91;;;8.74;83.80
64551;BME280;50945;44.472;-123.352;2023-05-03T09:27:23;100029.78;;;8.68;83.56
64551;BME280;50945;44.472;-123.352;2023-05-03T09:29:50;100023.53;;;8.59;83.94
64551;BME280;50945;44.472;-123.352;2023-05-03T09:32:17;100025.44;;;8.50;84.45
64551;BME280;50945;44.472;-123.352;2023-05-03T09:34:44;100025.53;;;8.42;90.32
64551;BME280;50945;44.472;-123.352;2023-05-03T09:37:11;100031.28;;;8.39;86.00
64551;BME280;50945;44.472;-123.352;2023-05-03T09:39:42;100036.41;;;8.42;85.26
64551;BME280;50945;44.472;-123.352;2023-05-03T09:42:17;100033.47;;;8.44;85.13
64551;BME280;50945;44.472;-123.352;2023-05-03T09:44:46;100021.56;;;8.45;84.98
64551;BME280;50945;44.472;-123.352;2023-05-03T09:47:19;100024.13;;;8.46;85.22
64551;BME280;50945;44.472;-123.352;2023-05-03T09:49:46;100010.31;;;8.48;85.53
64551;BME280;50945;44.472;-123.352;2023-05-03T09:52:13;100010.31;;;8.48;85.34
64551;BME280;50945;44.472;-123.352;2023-05-03T09:54:39;99989.06;;;8.43;84.49
64551;BME280;50945;44.472;-123.352;2023-05-03T09:57:06;99984.50;;;8.35;83.86
64551;BME280;50945;44.472;-123.352;2023-05-03T09:59:37;99978.25;;;8.27;84.51
64551;BME280;50945;44.472;-123.352;2023-05-03T10:02:06;99971.31;;;8.16;84.53
64551;BME280;50945;44.472;-123.352;2023-05-03T10:04:43;99976.63;;;8.09;84.76
64551;BME280;50945;44.472;-123.352;2023-05-03T10:07:16;99973.94;;;8.01;85.19
64551;BME280;50945;44.472;-123.352;2023-05-03T10:09:45;99981.44;;;7.99;85.55
64551;BME280;50945;44.472;-123.352;2023-05-03T10:12:13;99988.94;;;7.97;85.47
64551;BME280;50945;44.472;-123.352;2023-05-03T10:14:46;99990.97;;;7.95;85.49
64551;BME280;50945;44.472;-123.352;2023-05-03T10:17:26;99979.09;;;7.96;85.89
64551;BME280;50945;44.472;-123.352;2023-05-03T10:20:23;99970.06;;;7.95;86.45
64551;BME280;50945;44.472;-123.352;2023-05-03T10:25:33;99974.50;;;7.88;85.11
64551;BME280;50945;44.472;-123.352;2023-05-03T10:28:08;99978.44;;;7.86;85.47
64551;BME280;50945;44.472;-123.352;2023-05-03T10:30:35;99972.13;;;7.85;85.54
64551;BME280;50945;44.472;-123.352;2023-05-03T10:35:42;99961.06;;;7.87;85.85
64551;BME280;50945;44.472;-123.352;2023-05-03T10:40:47;99957.16;;;7.89;85.61
64551;BME280;50945;44.472;-123.352;2023-05-03T10:46:05;99959.41;;;7.86;85.71
64551;BME280;50945;44.472;-123.352;2023-05-03T10:48:34;99957.50;;;7.86;84.84
64551;BME280;50945;44.472;-123.352;2023-05-03T10:53:51;99955.31;;;7.81;85.43
64551;BME280;50945;44.472;-123.352;2023-05-03T10:56:17;99954.47;;;7.81;85.67
64551;BME280;50945;44.472;-123.352;2023-05-03T10:58:46;99952.41;;;7.83;85.43
64551;BME280;50945;44.472;-123.352;2023-05-03T11:01:14;99948.50;;;7.86;85.19
64551;BME280;50945;44.472;-123.352;2023-05-03T11:06:30;99948.81;;;7.91;85.43
64551;BME280;50945;44.472;-123.352;2023-05-03T11:09:01;99950.16;;;7.95;85.43
64551;BME280;50945;44.472;-123.352;2023-05-03T11:11:29;99944.53;;;7.96;85.43
64551;BME280;50945;44.472;-123.352;2023-05-03T11:13:56;99943.16;;;8.00;85.33
64551;BME280;50945;44.472;-123.352;2023-05-03T11:16:22;99942.13;;;8.02;85.27
64551;BME280;50945;44.472;-123.352;2023-05-03T11:18:50;99950.31;;;8.02;85.71
64551;BME280;50945;44.472;-123.352;2023-05-03T11:21:16;99949.25;;;8.03;85.47
64551;BME280;50945;44.472;-123.352;2023-05-03T11:23:43;99943.16;;;8.00;85.59
64551;BME280;50945;44.472;-123.352;2023-05-03T11:26:10;99943.31;;;7.99;85.62
64551;BME280;50945;44.472;-123.352;2023-05-03T11:28:43;99950.81;;;7.97;85.79
64551;BME280;50945;44.472;-123.352;2023-05-03T11:31:10;99942.47;;;7.98;85.71
64551;BME280;50945;44.472;-123.352;2023-05-03T11:33:38;99951.50;;;7.99;85.93
64551;BME280;50945;44.472;-123.352;2023-05-03T11:36:06;99951.13;;;8.02;85.85
64551;BME280;50945;44.472;-123.352;2023-05-03T11:38:35;99952.66;;;8.05;85.84
64551;BME280;50945;44.472;-123.352;2023-05-03T11:41:11;99944.31;;;8.06;86.04
64551;BME280;50945;44.472;-123.352;2023-05-03T11:43:50;99952.28;;;8.08;85.96
64551;BME280;50945;44.472;-123.352;2023-05-03T11:46:30;99944.97;;;8.08;86.15
64551;BME280;50945;44.472;-123.352;2023-05-03T11:48:57;99946.50;;;8.11;85.85
64551;BME280;50945;44.472;-123.352;2023-05-03T11:51:24;99946.50;;;8.11;85.49
64551;BME280;50945;44.472;-123.352;2023-05-03T11:53:52;99949.09;;;8.04;85.55
64551;BME280;50945;44.472;-123.352;2023-05-03T11:56:19;99952.16;;;8.01;85.75
64551;BME280;50945;44.472;-123.352;2023-05-03T11:59:03;99944.72;;;7.95;86.37
64551;BME280;50945;44.472;-123.352;2023-05-03T12:01:29;99943.56;;;7.89;85.44
64551;BME280;50945;44.472;-123.352;2023-05-03T12:04:03;99939.84;;;7.82;86.54
64551;BME280;50945;44.472;-123.352;2023-05-03T12:06:33;99934.94;;;7.77;85.90
64551;BME280;50945;44.472;-123.352;2023-05-03T12:09:02;99934.78;;;7.71;85.85
64551;BME280;50945;44.472;-123.352;2023-05-03T12:11:29;99938.38;;;7.63;85.46
64551;BME280;50945;44.472;-123.352;2023-05-03T12:14:04;99940.28;;;7.54;85.60
64551;BME280;50945;44.472;-123.352;2023-05-03T12:16:46;99947.28;;;7.49;87.48
64551;BME280;50945;44.472;-123.352;2023-05-03T12:19:33;99943.41;;;7.43;87.45
64551;BME280;50945;44.472;-123.352;2023-05-03T12:21:59;99946.44;;;7.40;86.62
64551;BME280;50945;44.472;-123.352;2023-05-03T12:24:26;99947.66;;;7.37;86.53
64551;BME280;50945;44.472;-123.352;2023-05-03T12:26:53;99950.38;;;7.37;86.23
64551;BME280;50945;44.472;-123.352;2023-05-03T12:29:19;99945.13;;;7.36;86.40
64551;BME280;50945;44.472;-123.352;2023-05-03T12:31:45;99930.66;;;7.35;86.49
64551;BME280;50945;44.472;-123.352;2023-05-03T12:34:11;99933.19;;;7.37;86.51
64551;BME280;50945;44.472;-123.352;2023-05-03T12:36:38;99935.91;;;7.37;86.03
64551;BME280;50945;44.472;-123.352;2023-05-03T12:39:04;99929.13;;;7.33;86.40
64551;BME280;50945;44.472;-123.352;2023-05-03T12:41:33;99925.59;;;7.32;86.07
64551;BME280;50945;44.472;-123.352;2023-05-03T12:43:59;99913.00;;;7.31;86.01
64551;BME280;50945;44.472;-123.352;2023-05-03T12:46:28;99919.28;;;7.32;86.51
64551;BME280;50945;44.472;-123.352;2023-05-03T12:48:54;99916.56;;;7.32;86.47
64551;BME280;50945;44.472;-123.352;2023-05-03T12:51:21;99917.25;;;7.34;86.92
64551;BME280;50945;44.472;-123.352;2023-05-03T12:53:47;99921.66;;;7.35;86.67
64551;BME280;50945;44.472;-123.352;2023-05-03T12:56:14;99912.66;;;7.34;86.82
64551;BME280;50945;44.472;-123.352;2023-05-03T12:58:40;99904.16;;;7.37;87.05